Time;durP1;ratioP1;P1;durP2;ratioP2;P2;SDS_P1;SDS_P2;PMS_P1;PMS_P2;Temp;Humidity;BMP_temperature;BMP_pressure;BME280_temperature;BME280_humidity;BME280_pressure;Samples;Min_cycle;Max_cycle;Signal;HPM_P1;HPM_P2
2021/11/03 00:02:50;;;;;;;2.60;1.55;;;;;;;7.51;100.00;99855.69;6233566;28;20046;-72
2021/11/03 00:05:51;;;;;;;3.15;1.75;;;;;;;7.49;100.00;99857.53;6261099;28;20045;-72
2021/11/03 00:08:57;;;;;;;2.72;1.92;;;;;;;7.45;100.00;99853.38;6256750;28;20041;-72
2021/11/03 00:11:59;;;;;;;2.47;1.60;;;;;;;7.41;100.00;99859.75;6247742;28;20056;-71
2021/11/03 00:15:00;;;;;;;2.30;1.50;;;;;;;7.35;100.00;99856.50;6264656;28;20048;-72
2021/11/03 00:18:01;;;;;;;2.42;1.40;;;;;;;7.29;100.00;99850.78;6255357;28;20041;-71
2021/11/03 00:21:06;;;;;;;3.58;1.80;;;;;;;7.21;100.00;99852.94;6257469;28;20050;-71
2021/11/03 00:24:09;;;;;;;3.22;1.35;;;;;;;7.15;100.00;99855.91;6262759;28;20041;-71
2021/11/03 00:27:11;;;;;;;2.97;1.48;;;;;;;7.10;100.00;99856.16;6254775;28;20045;-71
2021/11/03 00:30:12;;;;;;;3.10;1.75;;;;;;;7.06;100.00;99854.63;6246162;28;20046;-72
2021/11/03 00:33:14;;;;;;;2.28;1.70;;;;;;;7.01;100.00;99856.63;6247859;28;20053;-72
2021/11/03 00:36:16;;;;;;;5.53;1.60;;;;;;;6.96;100.00;99850.81;6262492;28;20064;-71
2021/11/03 00:39:22;;;;;;;2.80;1.40;;;;;;;6.90;100.00;99864.19;6259438;28;20045;-71
2021/11/03 00:42:23;;;;;;;2.13;1.52;;;;;;;6.82;100.00;99864.59;6240310;28;20052;-72
2021/11/03 00:45:25;;;;;;;2.67;1.52;;;;;;;6.81;100.00;99860.28;6254697;28;20044;-72
2021/11/03 00:48:26;;;;;;;2.00;1.75;;;;;;;6.83;100.00;99866.28;6257672;28;20511;-71
2021/11/03 00:51:29;;;;;;;2.13;1.60;;;;;;;6.86;100.00;99866.97;6266940;28;20515;-69
2021/11/03 00:54:32;;;;;;;4.45;2.47;;;;;;;6.94;100.00;99857.88;6270987;28;20059;-72
2021/11/03 00:57:33;;;;;;;4.32;2.17;;;;;;;7.00;100.00;99855.81;6261447;28;20049;-72
2021/11/03 01:00:35;;;;;;;5.18;2.83;;;;;;;7.06;100.00;99863.31;6246370;28;20057;-71
2021/11/03 01:03:36;;;;;;;4.65;2.30;;;;;;;7.09;100.00;99862.31;6259216;28;20385;-71
2021/11/03 01:06:38;;;;;;;4.30;2.15;;;;;;;7.14;100.00;99857.69;6256829;28;20042;-72
2021/11/03 01:09:41;;;;;;;7.75;2.85;;;;;;;7.18;100.00;99853.97;6238781;28;20050;-71
2021/11/03 01:12:43;;;;;;;4.70;2.63;;;;;;;7.17;100.00;99859.25;6234489;28;20057;-71
2021/11/03 01:15:44;;;;;;;6.13;3.13;;;;;;;7.15;100.00;99858.53;6227943;28;20037;-72
2021/11/03 01:18:46;;;;;;;7.55;4.07;;;;;;;7.18;100.00;99860.97;6231008;28;20049;-71
2021/11/03 01:21:48;;;;;;;9.45;3.90;;;;;;;7.20;100.00;99861.72;6230225;28;20085;-72
2021/11/03 01:24:50;;;;;;;8.63;4.45;;;;;;;7.19;100.00;99868.72;6234054;28;20053;-69
2021/11/03 01:27:52;;;;;;;7.07;3.20;;;;;;;7.21;100.00;99869.47;6245397;28;20045;-71
2021/11/03 01:30:55;;;;;;;14.38;5.20;;;;;;;7.19;100.00;99868.72;6254298;28;20420;-72
2021/11/03 01:33:56;;;;;;;9.88;4.30;;;;;;;7.19;100.00;99865.28;6261672;28;20052;-71
2021/11/03 01:36:57;;;;;;;10.73;3.85;;;;;;;7.19;100.00;99866.13;6263684;28;20052;-68
2021/11/03 01:40:00;;;;;;;8.88;3.85;;;;;;;7.21;100.00;99858.19;6254311;28;20048;-72
2021/11/03 01:43:02;;;;;;;9.45;3.88;;;;;;;7.23;100.00;99853.72;6246159;28;20049;-71
2021/11/03 01:46:19;;;;;;;9.55;4.40;;;;;;;7.21;100.00;99839.88;6234743;28;20413;-72
2021/11/03 01:49:22;;;;;;;8.35;3.80;;;;;;;7.14;100.00;99836.78;6249175;28;20048;-71
2021/11/03 01:52:23;;;;;;;6.55;3.95;;;;;;;7.06;100.00;99834.56;6249962;28;20048;-71
2021/11/03 01:55:27;;;;;;;9.77;4.70;;;;;;;6.97;100.00;99850.72;6261415;28;20056;-71
2021/11/03 01:58:34;;;;;;;6.95;4.20;;;;;;;6.88;100.00;99847.75;6257906;28;20171;-71
2021/11/03 02:01:35;;;;;;;10.30;5.57;;;;;;;6.77;100.00;99845.72;6263054;28;20500;-71
2021/11/03 02:04:37;;;;;;;11.70;4.70;;;;;;;6.69;100.00;99847.88;6253248;28;20493;-71
2021/11/03 02:07:41;;;;;;;11.57;5.47;;;;;;;6.60;100.00;99846.59;6248832;28;20049;-71
2021/11/03 02:10:44;;;;;;;11.95;5.05;;;;;;;6.49;100.00;99844.50;6261995;28;20046;-71
2021/11/03 02:13:46;;;;;;;13.20;4.30;;;;;;;6.48;100.00;99849.81;6265767;28;20084;-72
2021/11/03 02:16:52;;;;;;;10.35;4.55;;;;;;;6.45;100.00;99852.56;6258956;28;20049;-71
2021/11/03 02:19:56;;;;;;;8.45;3.92;;;;;;;6.40;100.00;99851.97;6235658;28;20603;-71
2021/11/03 02:23:07;;;;;;;14.77;5.13;;;;;;;6.34;100.00;99856.56;6239367;28;20046;-71
2021/11/03 02:26:13;;;;;;;11.15;4.30;;;;;;;6.28;100.00;99854.28;6255857;28;20080;-72
2021/11/03 02:29:18;;;;;;;8.93;3.70;;;;;;;6.23;100.00;99858.03;6265006;28;20045;-72
2021/11/03 02:32:23;;;;;;;9.00;4.07;;;;;;;6.18;100.00;99865.25;6268565;28;20045;-71
2021/11/03 02:35:24;;;;;;;12.52;4.97;;;;;;;6.14;100.00;99855.91;6263163;28;20044;-72
2021/11/03 02:38:30;;;;;;;10.30;4.43;;;;;;;6.05;100.00;99859.78;6260347;28;20296;-71
2021/11/03 02:41:36;;;;;;;11.57;5.10;;;;;;;6.01;100.00;99859.09;6269746;28;20060;-72
2021/11/03 02:44:39;;;;;;;9.43;4.03;;;;;;;6.00;100.00;99857.41;6264154;28;20069;-72
2021/11/03 02:47:40;;;;;;;11.65;4.47;;;;;;;5.99;100.00;99855.69;6258073;28;20041;-71
2021/11/03 02:51:06;;;;;;;12.85;4.85;;;;;;;5.98;100.00;99856.63;6270977;28;20053;-70
2021/11/03 02:54:10;;;;;;;9.32;4.15;;;;;;;5.97;100.00;99860.16;6273026;28;20048;-71
2021/11/03 02:57:13;;;;;;;10.85;4.22;;;;;;;5.95;100.00;99858.53;6265630;28;20042;-70
2021/11/03 03:00:21;;;;;;;10.50;4.70;;;;;;;5.91;100.00;99851.78;6254026;28;20053;-71
2021/11/03 03:03:23;;;;;;;9.65;4.55;;;;;;;5.87;100.00;99858.03;6266861;28;20042;-71
2021/11/03 03:06:27;;;;;;;9.55;3.80;;;;;;;5.83;100.00;99847.75;6253907;28;20430;-71
2021/11/03 03:09:28;;;;;;;13.80;4.07;;;;;;;5.77;100.00;99853.28;6248317;28;20049;-71
2021/11/03 03:12:33;;;;;;;9.57;4.28;;;;;;;5.71;100.00;99857.91;6248068;28;20061;-71
2021/11/03 03:15:34;;;;;;;11.18;4.95;;;;;;;5.66;100.00;99857.31;6248043;28;20048;-71
2021/11/03 03:18:36;;;;;;;9.93;4.00;;;;;;;5.60;100.00;99855.84;6247939;28;20050;-71
2021/11/03 03:21:37;;;;;;;19.77;5.30;;;;;;;5.54;100.00;99859.59;6247325;28;20057;-71
2021/11/03 03:24:39;;;;;;;8.63;4.18;;;;;;;5.47;100.00;99868.59;6247631;28;20095;-70
2021/11/03 03:27:42;;;;;;;13.85;5.00;;;;;;;5.45;100.00;99874.78;6259054;28;20072;-71
2021/11/03 03:30:43;;;;;;;6.55;4.07;;;;;;;5.39;100.00;99873.31;6249665;28;20046;-70
2021/11/03 03:33:45;;;;;;;11.05;4.60;;;;;;;5.35;100.00;99879.56;6261764;28;20040;-71
2021/11/03 03:36:48;;;;;;;13.65;4.75;;;;;;;5.32;100.00;99879.72;6250300;28;20049;-71
2021/11/03 03:39:49;;;;;;;12.00;4.95;;;;;;;5.30;100.00;99879.78;6259328;28;20056;-70
2021/11/03 03:42:52;;;;;;;8.40;4.43;;;;;;;5.23;100.00;99873.19;6261535;28;20057;-71
2021/11/03 03:45:53;;;;;;;11.88;5.03;;;;;;;5.21;100.00;99864.56;6262657;28;20420;-70
2021/11/03 03:48:54;;;;;;;13.50;5.63;;;;;;;5.21;100.00;99863.72;6267687;28;20060;-71
2021/11/03 03:51:56;;;;;;;12.00;4.22;;;;;;;5.23;100.00;99865.34;6263292;28;20052;-71
2021/11/03 03:54:57;;;;;;;10.90;4.53;;;;;;;5.21;100.00;99866.31;6271809;28;20496;-71
2021/11/03 03:58:00;;;;;;;13.95;5.13;;;;;;;5.16;100.00;99865.69;6271802;28;20049;-71
2021/11/03 04:01:01;;;;;;;10.63;4.53;;;;;;;5.15;100.00;99877.03;6270232;28;20052;-71
2021/11/03 04:04:03;;;;;;;10.70;4.15;;;;;;;5.11;100.00;99870.28;6259135;28;20049;-71
2021/11/03 04:07:05;;;;;;;11.18;4.07;;;;;;;5.06;100.00;99870.47;6254475;28;20067;-71
2021/11/03 04:10:07;;;;;;;13.52;4.80;;;;;;;5.01;100.00;99873.28;6264344;28;20427;-70
2021/11/03 04:13:11;;;;;;;16.70;5.05;;;;;;;4.96;100.00;99874.41;6262883;28;20052;-71
2021/11/03 04:16:12;;;;;;;10.43;4.50;;;;;;;4.94;100.00;99873.63;6250623;28;20420;-70
2021/11/03 04:19:14;;;;;;;8.63;3.88;;;;;;;4.89;100.00;99880.78;6262931;28;20052;-71
2021/11/03 04:22:16;;;;;;;20.65;5.35;;;;;;;4.86;100.00;99878.31;6271338;28;20049;-71
2021/11/03 04:25:17;;;;;;;12.10;5.13;;;;;;;4.81;100.00;99878.50;6267430;28;20456;-70
2021/11/03 04:28:20;;;;;;;12.45;4.55;;;;;;;4.83;100.00;99874.94;6262048;28;20076;-71
2021/11/03 04:31:22;;;;;;;11.13;5.45;;;;;;;4.82;100.00;99870.66;6271277;28;20053;-71
2021/11/03 04:34:23;;;;;;;12.00;4.20;;;;;;;4.84;100.00;99875.78;6271057;28;20045;-70
2021/11/03 04:37:24;;;;;;;10.02;4.72;;;;;;;4.81;100.00;99868.09;6271335;28;20484;-71
2021/11/03 04:40:28;;;;;;;10.63;5.00;;;;;;;4.81;100.00;99862.88;6264267;28;20053;-72
2021/11/03 04:43:32;;;;;;;16.77;5.70;;;;;;;4.76;100.00;99873.50;6267226;28;20049;-71
2021/11/03 04:46:34;;;;;;;15.25;5.53;;;;;;;4.72;100.00;99876.31;6270949;28;20404;-70
2021/11/03 04:49:36;;;;;;;9.63;4.22;;;;;;;4.68;100.00;99873.00;6271307;28;20140;-71
2021/11/03 04:52:37;;;;;;;14.93;4.68;;;;;;;4.67;100.00;99878.25;6271258;28;20052;-71
2021/11/03 04:55:41;;;;;;;13.13;5.43;;;;;;;4.66;100.00;99887.84;6270688;28;20412;-71
2021/11/03 04:58:44;;;;;;;16.00;5.00;;;;;;;4.65;100.00;99887.91;6254127;28;20087;-71
2021/11/03 05:01:45;;;;;;;11.65;4.57;;;;;;;4.60;100.00;99884.66;6252281;28;20564;-70
2021/11/03 05:04:47;;;;;;;10.43;4.88;;;;;;;4.59;100.00;99889.03;6255043;28;20493;-71
2021/11/03 05:07:48;;;;;;;13.02;4.82;;;;;;;4.56;100.00;99886.53;6232445;28;20037;-73
2021/11/03 05:10:50;;;;;;;11.95;4.20;;;;;;;4.53;100.00;99890.09;6221632;28;20097;-71
2021/11/03 05:13:53;;;;;;;13.20;4.45;;;;;;;4.51;100.00;99894.53;6221398;28;20509;-72
2021/11/03 05:16:54;;;;;;;8.43;4.57;;;;;;;4.48;100.00;99894.66;6236797;28;20060;-73
2021/11/03 05:19:55;;;;;;;10.27;4.53;;;;;;;4.48;100.00;99891.22;6273774;22;20122;-66
2021/11/03 05:22:57;;;;;;;11.73;5.30;;;;;;;4.45;100.00;99894.81;6250520;28;20049;-67
2021/11/03 05:25:58;;;;;;;10.98;4.88;;;;;;;4.43;100.00;99893.16;6265112;28;20045;-67
2021/11/03 05:29:04;;;;;;;12.70;5.00;;;;;;;4.38;100.00;99898.56;6274981;28;20053;-67
2021/11/03 05:32:07;;;;;;;15.27;5.25;;;;;;;4.35;100.00;99908.25;6274974;28;20162;-66
2021/11/03 05:35:09;;;;;;;13.57;4.93;;;;;;;4.27;100.00;99908.53;6274806;28;20423;-66
2021/11/03 05:38:11;;;;;;;13.90;5.20;;;;;;;4.27;100.00;99914.63;6274672;28;20156;-66
2021/11/03 05:41:13;;;;;;;13.32;5.13;;;;;;;4.25;100.00;99919.03;6274808;28;20523;-66
2021/11/03 05:44:19;;;;;;;13.85;4.65;;;;;;;4.21;100.00;99919.22;6274735;28;20049;-66
2021/11/03 05:47:24;;;;;;;16.48;4.93;;;;;;;4.18;100.00;99909.78;6274353;28;20041;-67
2021/11/03 05:50:28;;;;;;;15.77;4.90;;;;;;;4.17;100.00;99923.69;6274776;28;20056;-67
2021/11/03 05:53:30;;;;;;;10.05;4.80;;;;;;;4.20;100.00;99928.75;6274158;28;20439;-67
2021/11/03 05:56:32;;;;;;;12.10;4.45;;;;;;;4.16;100.00;99921.16;6274777;28;20052;-67
2021/11/03 05:59:36;;;;;;;10.65;5.40;;;;;;;4.13;100.00;99927.31;6274009;28;20392;-67
2021/11/03 06:02:37;;;;;;;11.95;5.05;;;;;;;4.11;100.00;99921.34;6274668;28;20045;-66
2021/11/03 06:05:39;;;;;;;14.52;6.07;;;;;;;4.06;100.00;99939.72;6274107;28;20064;-67
2021/11/03 06:08:40;;;;;;;11.70;4.80;;;;;;;4.04;100.00;99943.28;6274458;28;20045;-66
2021/11/03 06:11:43;;;;;;;16.70;5.47;;;;;;;4.04;100.00;99938.06;6274254;28;20049;-67
2021/11/03 06:14:46;;;;;;;14.77;6.43;;;;;;;4.05;100.00;99943.22;6273865;28;20496;-67
2021/11/03 06:17:48;;;;;;;19.90;4.88;;;;;;;4.03;100.00;99937.22;6274267;28;20040;-66
2021/11/03 06:20:49;;;;;;;20.52;6.53;;;;;;;4.01;100.00;99933.84;6273830;28;20052;-67
2021/11/03 06:23:50;;;;;;;15.00;4.95;;;;;;;4.02;100.00;99942.50;6274032;28;20045;-67
2021/11/03 06:26:52;;;;;;;14.80;5.05;;;;;;;4.01;100.00;99944.25;6273749;28;20053;-67
2021/11/03 06:29:54;;;;;;;15.98;4.80;;;;;;;3.97;100.00;99942.69;6273020;28;20048;-67
2021/11/03 06:32:56;;;;;;;15.13;6.40;;;;;;;3.96;100.00;99935.78;6271242;28;20052;-67
2021/11/03 06:35:59;;;;;;;12.00;5.28;;;;;;;3.93;100.00;99937.66;6271295;28;20053;-67
2021/11/03 06:39:01;;;;;;;12.80;5.82;;;;;;;3.90;100.00;99941.22;6263955;28;20044;-67
2021/11/03 06:42:03;;;;;;;18.13;5.35;;;;;;;3.92;100.00;99939.41;6271219;28;20049;-67
2021/11/03 06:45:09;;;;;;;14.27;5.90;;;;;;;3.93;100.00;99948.06;6270823;28;20048;-67
2021/11/03 06:48:11;;;;;;;13.75;5.32;;;;;;;3.92;100.00;99946.38;6272927;28;20440;-67
2021/11/03 06:51:12;;;;;;;12.70;4.57;;;;;;;3.93;100.00;99950.66;6272016;28;20064;-67
2021/11/03 06:54:14;;;;;;;8.77;3.85;;;;;;;3.92;100.00;99949.81;6272977;28;20052;-67
2021/11/03 06:57:15;;;;;;;15.60;6.20;;;;;;;3.92;100.00;99952.41;6254802;28;20054;-66
2021/11/03 07:00:22;;;;;;;16.83;5.93;;;;;;;3.93;100.00;99955.84;6272080;28;20049;-67
2021/11/03 07:03:26;;;;;;;13.90;5.57;;;;;;;3.92;100.00;99967.16;6263333;28;20633;-66
2021/11/03 07:06:27;;;;;;;13.48;4.93;;;;;;;3.92;100.00;99969.75;6266428;28;20040;-67
2021/11/03 07:09:29;;;;;;;20.92;5.13;;;;;;;3.91;100.00;99979.31;6272453;28;20049;-67
2021/11/03 07:12:30;;;;;;;9.65;4.63;;;;;;;3.91;100.00;99974.13;6272668;28;20116;-67
2021/11/03 07:15:34;;;;;;;15.30;5.32;;;;;;;3.99;100.00;99981.59;6272496;28;20059;-67
2021/11/03 07:18:35;;;;;;;11.55;4.88;;;;;;;4.06;100.00;99988.28;6272889;28;20052;-67
2021/11/03 07:21:39;;;;;;;13.13;4.65;;;;;;;4.16;100.00;99993.97;6272414;28;20045;-66
2021/11/03 07:24:40;;;;;;;9.57;4.50;;;;;;;4.17;100.00;99995.66;6271455;28;20048;-67
2021/11/03 07:27:42;;;;;;;12.80;6.07;;;;;;;4.14;100.00;99994.03;6272011;28;20037;-67
2021/11/03 07:30:45;;;;;;;13.43;5.97;;;;;;;4.20;100.00;99993.78;6272025;28;20424;-67
2021/11/03 07:33:46;;;;;;;14.02;5.88;;;;;;;4.20;100.00;99998.13;6271988;28;20056;-66
2021/11/03 07:36:49;;;;;;;16.42;6.25;;;;;;;4.25;100.00;99998.78;6272205;28;20056;-67
2021/11/03 07:39:50;;;;;;;9.50;4.57;;;;;;;4.29;100.00;99992.56;6269357;28;20051;-67
2021/11/03 07:42:53;;;;;;;14.23;4.93;;;;;;;4.35;100.00;99994.06;6258674;28;20132;-66
2021/11/03 07:45:56;;;;;;;12.10;5.03;;;;;;;4.41;100.00;99988.66;6257630;28;20045;-67
2021/11/03 07:48:58;;;;;;;13.38;4.68;;;;;;;4.44;100.00;99997.16;6258729;28;20041;-66
2021/11/03 07:51:59;;;;;;;14.13;5.57;;;;;;;4.49;100.00;99997.81;6256939;28;20423;-66
2021/11/03 07:55:00;;;;;;;19.02;4.85;;;;;;;4.53;100.00;99998.53;6262126;28;20060;-66
2021/11/03 07:58:02;;;;;;;14.55;4.70;;;;;;;4.55;100.00;99992.38;6258657;28;20052;-66
2021/11/03 08:01:05;;;;;;;13.90;5.00;;;;;;;4.57;100.00;99997.50;6256290;28;20052;-66
2021/11/03 08:04:08;;;;;;;10.18;4.65;;;;;;;4.57;100.00;99997.50;6255142;28;20523;-66
2021/11/03 08:07:10;;;;;;;14.02;5.63;;;;;;;4.63;100.00;99996.41;6246816;28;20452;-66
2021/11/03 08:10:14;;;;;;;12.82;5.32;;;;;;;4.68;100.00;100003.13;6246847;28;20053;-67
2021/11/03 08:13:17;;;;;;;7.22;3.38;;;;;;;4.70;100.00;99997.84;6250006;28;20416;-67
2021/11/03 08:16:19;;;;;;;6.75;4.13;;;;;;;4.71;100.00;100002.16;6264600;28;20053;-67
2021/11/03 08:19:24;;;;;;;13.90;4.88;;;;;;;4.74;100.00;100008.06;6271199;28;20056;-67
2021/11/03 08:22:25;;;;;;;11.38;4.55;;;;;;;4.73;100.00;100011.59;6271195;28;20046;-67
2021/11/03 08:25:28;;;;;;;11.20;5.15;;;;;;;4.73;100.00;100001.19;6270904;28;20056;-67
2021/11/03 08:28:30;;;;;;;12.95;4.80;;;;;;;4.75;100.00;99999.34;6265160;28;20047;-67
2021/11/03 08:31:34;;;;;;;10.40;4.75;;;;;;;4.81;100.00;99999.13;6251385;28;20051;-66
2021/11/03 08:34:37;;;;;;;14.05;5.78;;;;;;;4.84;100.00;99998.97;6269772;28;20045;-67
2021/11/03 08:37:40;;;;;;;14.52;4.95;;;;;;;4.87;100.00;99997.16;6270960;28;20509;-66
2021/11/03 08:40:43;;;;;;;16.70;5.00;;;;;;;4.90;100.00;99994.41;6271166;28;20049;-66
2021/11/03 08:43:46;;;;;;;11.63;5.25;;;;;;;4.93;100.00;100004.72;6270917;28;20071;-67
2021/11/03 08:46:48;;;;;;;13.65;6.38;;;;;;;4.96;100.00;100000.22;6270709;28;20419;-66
2021/11/03 08:49:50;;;;;;;12.02;4.28;;;;;;;4.98;100.00;100007.97;6271079;28;20056;-67
2021/11/03 08:52:52;;;;;;;11.80;4.82;;;;;;;5.04;100.00;100000.75;6263963;28;20060;-66
2021/11/03 08:55:55;;;;;;;15.93;6.53;;;;;;;5.09;100.00;100009.22;6251205;28;20053;-67
2021/11/03 08:58:57;;;;;;;9.88;4.20;;;;;;;5.16;100.00;100001.97;6264421;28;20045;-67
2021/11/03 09:01:59;;;;;;;22.52;5.88;;;;;;;5.23;100.00;100000.81;6267721;28;20056;-67
2021/11/03 09:05:01;;;;;;;16.33;4.85;;;;;;;5.29;100.00;100002.28;6275516;28;20071;-67
2021/11/03 09:08:03;;;;;;;12.40;5.53;;;;;;;5.36;100.00;99998.50;6275517;28;20428;-65
2021/11/03 09:11:05;;;;;;;11.18;4.78;;;;;;;5.43;100.00;100006.91;6275255;28;20053;-66
2021/11/03 09:14:06;;;;;;;16.40;5.55;;;;;;;5.49;100.00;100004.00;6275190;28;20413;-66
2021/11/03 09:17:09;;;;;;;14.90;5.45;;;;;;;5.58;100.00;100009.66;6275580;28;20060;-67
2021/11/03 09:20:13;;;;;;;9.82;4.72;;;;;;;5.62;100.00;100007.75;6275523;28;20183;-67
2021/11/03 09:23:16;;;;;;;15.80;5.18;;;;;;;5.69;100.00;100010.97;6275401;28;20069;-66
2021/11/03 09:26:21;;;;;;;10.02;4.70;;;;;;;5.78;100.00;100008.78;6275332;28;20052;-67
2021/11/03 09:29:22;;;;;;;9.73;4.28;;;;;;;5.83;100.00;100009.41;6274615;28;20045;-67
2021/11/03 09:32:29;;;;;;;11.27;5.10;;;;;;;5.89;100.00;99999.59;6275189;28;20053;-66
2021/11/03 09:35:34;;;;;;;10.90;4.00;;;;;;;5.91;100.00;99996.03;6274674;28;20049;-67
2021/11/03 09:38:35;;;;;;;7.47;3.30;;;;;;;5.96;100.00;100003.66;6274983;28;20049;-65
2021/11/03 09:41:41;;;;;;;12.32;4.80;;;;;;;5.98;100.00;100001.81;6275042;28;20072;-66
2021/11/03 09:44:44;;;;;;;18.55;5.15;;;;;;;6.04;100.00;100006.75;6274733;28;20052;-66
2021/11/03 09:48:02;;;;;;;8.98;4.25;;;;;;;6.04;100.00;100011.97;6271989;28;20059;-65
2021/11/03 09:51:13;;;;;;;8.63;3.93;;;;;;;6.08;100.00;100008.28;6273113;28;20126;-66
2021/11/03 09:54:18;;;;;;;13.23;4.57;;;;;;;6.14;100.00;100010.63;6274617;28;20053;-68
2021/11/03 09:57:27;;;;;;;13.63;4.72;;;;;;;6.21;100.00;100009.41;6274519;28;20049;-66
2021/11/03 10:00:36;;;;;;;8.48;4.53;;;;;;;6.25;100.00;100007.50;6274230;28;20633;-67
2021/11/03 10:03:45;;;;;;;14.50;4.80;;;;;;;6.33;100.00;100011.44;6273218;28;20049;-67
2021/11/03 10:06:54;;;;;;;11.73;5.40;;;;;;;6.37;100.00;100009.53;6274505;28;20044;-67
2021/11/03 10:09:56;;;;;;;;;;;;;;;6.42;100.00;100014.53;6274641;28;20053;-66
2021/11/03 10:12:58;;;;;;;9.85;4.00;;;;;;;6.49;100.00;100008.94;6274171;28;19921;-66
2021/11/03 10:16:02;;;;;;;29.95;11.95;;;;;;;6.50;100.00;100009.81;6272937;28;20045;-66
2021/11/03 10:19:20;;;;;;;20.25;7.38;;;;;;;6.63;100.00;100012.63;6273958;28;20548;-66
2021/11/03 10:22:31;;;;;;;12.40;4.15;;;;;;;6.72;100.00;100004.34;6268507;28;20128;-68
2021/11/03 10:25:32;;;;;;;12.60;4.47;;;;;;;6.73;100.00;100000.84;6273921;28;20053;-66
2021/11/03 10:28:40;;;;;;;12.13;5.45;;;;;;;6.81;100.00;99999.56;6273617;28;20045;-66
2021/11/03 10:31:45;;;;;;;11.63;5.10;;;;;;;6.84;100.00;99993.31;6273418;28;20054;-68
2021/11/03 10:34:51;;;;;;;18.33;6.20;;;;;;;6.89;100.00;99987.84;6273071;28;20433;-68
2021/11/03 10:37:59;;;;;;;11.85;5.78;;;;;;;6.90;100.00;99990.38;6273896;28;20500;-67
2021/11/03 10:41:05;;;;;;;15.33;6.40;;;;;;;6.86;100.00;99984.50;6273408;28;20123;-67
2021/11/03 10:44:09;;;;;;;14.93;5.65;;;;;;;6.94;100.00;99991.94;6273478;28;20416;-66
2021/11/03 10:47:13;;;;;;;9.23;4.40;;;;;;;7.09;100.00;99983.31;6273305;28;20072;-66
2021/11/03 10:50:40;;;;;;;12.90;5.57;;;;;;;7.29;100.00;99984.06;6273413;28;20052;-67
2021/11/03 10:53:50;;;;;;;6.63;4.00;;;;;;;7.40;100.00;99986.09;6272991;28;20064;-66
2021/11/03 10:56:55;;;;;;;12.88;4.80;;;;;;;7.50;100.00;99976.88;6273101;28;20496;-66
2021/11/03 11:00:04;;;;;;;8.73;4.45;;;;;;;7.56;100.00;99977.38;6272559;28;20052;-66
2021/11/03 11:03:13;;;;;;;12.10;4.53;;;;;;;7.57;100.00;99978.22;6254800;28;20519;-66
2021/11/03 11:06:20;;;;;;;12.23;4.22;;;;;;;7.64;100.00;99974.38;6247897;28;20072;-66
2021/11/03 11:09:31;;;;;;;11.95;4.40;;;;;;;7.65;100.00;99981.28;6248278;28;20053;-69
2021/11/03 11:12:35;;;;;;;8.65;3.53;;;;;;;7.75;100.00;99979.84;6247987;28;20088;-69
2021/11/03 11:15:48;;;;;;;13.38;4.10;;;;;;;7.81;100.00;99974.31;6270652;28;20068;-69
2021/11/03 11:19:03;;;;;;;8.20;3.75;;;;;;;7.93;100.00;99970.16;6272588;28;20488;-69
2021/11/03 11:22:19;;;;;;;8.45;3.45;;;;;;;8.03;100.00;99970.50;6258968;22;20053;-69
2021/11/03 11:25:24;;;;;;;9.02;3.92;;;;;;;8.09;100.00;99978.03;6230190;28;20049;-70
2021/11/03 11:28:35;;;;;;;9.48;4.00;;;;;;;8.22;100.00;99978.16;6247703;28;20053;-69
2021/11/03 11:31:44;;;;;;;7.65;3.20;;;;;;;8.28;100.00;99973.44;6228521;28;20057;-70
2021/11/03 11:34:58;;;;;;;10.40;3.72;;;;;;;8.32;100.00;99976.72;6222817;28;20489;-70
2021/11/03 11:38:11;;;;;;;8.02;3.58;;;;;;;8.43;100.00;99963.06;6223359;28;20046;-70
2021/11/03 11:41:19;;;;;;;4.15;2.15;;;;;;;8.53;100.00;99972.06;6222905;28;20129;-70
2021/11/03 11:44:26;;;;;;;9.02;3.78;;;;;;;8.59;100.00;99966.50;6222657;28;20580;-70
2021/11/03 11:47:34;;;;;;;7.82;3.70;;;;;;;8.62;100.00;99961.06;6222829;28;20053;-69
2021/11/03 11:50:41;;;;;;;5.45;2.80;;;;;;;8.71;100.00;99965.75;6222651;28;20425;-70
2021/11/03 11:54:21;;;;;;;7.22;3.35;;;;;;;8.76;100.00;99961.09;6222489;28;20056;-70
2021/11/03 11:57:29;;;;;;;7.35;3.45;;;;;;;8.83;100.00;99964.22;6221833;28;20052;-70
2021/11/03 12:00:31;;;;;;;5.25;3.10;;;;;;;8.87;100.00;99961.31;6222352;28;20053;-70
2021/11/03 12:03:32;;;;;;;4.30;2.47;;;;;;;8.86;100.00;99956.19;6222452;28;20550;-69
2021/11/03 12:06:40;;;;;;;7.35;3.47;;;;;;;8.84;100.00;99955.41;6222438;28;20050;-70
2021/11/03 12:09:46;;;;;;;10.60;3.97;;;;;;;8.79;100.00;99944.38;6221687;28;20046;-70
2021/11/03 12:13:26;;;;;;;7.22;3.33;;;;;;;8.81;100.00;99938.13;6221865;28;20409;-70
2021/11/03 12:16:33;;;;;;;4.95;3.13;;;;;;;8.79;100.00;99934.72;6218039;28;20046;-70
2021/11/03 12:19:59;;;;;;;5.00;3.05;;;;;;;8.83;100.00;99928.38;6221200;28;20053;-70
2021/11/03 12:23:01;;;;;;;4.57;2.70;;;;;;;8.86;100.00;99928.22;6204025;28;20065;-68
2021/11/03 12:26:33;;;;;;;5.88;2.75;;;;;;;8.92;100.00;99923.53;6221470;28;20417;-69
2021/11/03 12:29:41;;;;;;;7.72;3.17;;;;;;;8.86;100.00;99928.22;6217507;28;20050;-70
2021/11/03 12:32:57;;;;;;;7.85;3.45;;;;;;;8.85;100.00;99930.91;6197804;28;20050;-70
2021/11/03 12:36:11;;;;;;;7.97;3.67;;;;;;;8.86;100.00;99932.63;6197792;28;20050;-70
2021/11/03 12:39:30;;;;;;;5.53;2.78;;;;;;;8.87;100.00;99931.66;6197621;28;20077;-70
2021/11/03 12:42:55;;;;;;;5.75;3.08;;;;;;;8.92;100.00;99931.41;6197855;28;20042;-70
2021/11/03 12:46:03;;;;;;;12.05;4.90;;;;;;;8.96;100.00;99936.38;6197395;28;20058;-69
2021/11/03 12:49:12;;;;;;;6.20;2.47;;;;;;;9.02;100.00;99930.75;6197630;28;20081;-70
2021/11/03 12:52:14;;;;;;;7.72;3.10;;;;;;;9.01;100.00;99931.69;6197511;28;20402;-69
2021/11/03 12:55:24;;;;;;;7.65;3.10;;;;;;;9.00;100.00;99930.00;6197492;28;20050;-70
2021/11/03 12:58:32;;;;;;;7.03;2.65;;;;;;;9.02;100.00;99929.91;6197453;28;20046;-67
2021/11/03 13:01:38;;;;;;;8.15;2.78;;;;;;;9.04;100.00;99922.81;6197583;28;20046;-70
2021/11/03 13:04:44;;;;;;;6.22;2.88;;;;;;;9.05;100.00;99919.25;6197226;28;20137;-70
2021/11/03 13:07:47;;;;;;;5.80;2.25;;;;;;;9.03;100.00;99923.72;6203578;28;20417;-70
2021/11/03 13:11:03;;;;;;;3.90;2.30;;;;;;;8.98;100.00;99917.91;6216427;28;20046;-69
2021/11/03 13:14:18;;;;;;;2.92;1.90;;;;;;;8.92;100.00;99923.53;6218331;28;20052;-70
2021/11/03 13:17:24;;;;;;;4.38;2.05;;;;;;;8.83;100.00;99923.13;6221366;28;20057;-70
2021/11/03 13:20:29;;;;;;;4.30;2.22;;;;;;;8.82;100.00;99926.69;6221446;28;20049;-70
2021/11/03 13:23:32;;;;;;;5.00;2.92;;;;;;;8.90;100.00;99926.22;6221031;28;20042;-69
2021/11/03 13:26:36;;;;;;;4.32;2.00;;;;;;;8.98;100.00;99918.75;6221536;28;20058;-69
2021/11/03 13:29:42;;;;;;;4.47;2.50;;;;;;;9.11;100.00;99924.09;6215289;28;20409;-69
2021/11/03 13:32:56;;;;;;;4.03;2.03;;;;;;;9.26;100.00;99931.03;6212448;28;20049;-70
2021/11/03 13:36:01;;;;;;;4.85;2.28;;;;;;;9.43;100.00;99930.00;6220965;28;20050;-69
2021/11/03 13:39:21;;;;;;;3.60;2.22;;;;;;;9.41;100.00;99929.28;6223016;28;20042;-68
2021/11/03 13:42:36;;;;;;;6.50;2.70;;;;;;;9.45;100.00;99925.53;6213074;28;20061;-67
2021/11/03 13:45:42;;;;;;;6.00;2.55;;;;;;;9.54;100.00;99917.09;6225453;28;20401;-68
2021/11/03 13:48:53;;;;;;;6.63;3.70;;;;;;;9.55;100.00;99913.53;6223105;28;20420;-67
2021/11/03 13:51:57;;;;;;;7.28;3.00;;;;;;;9.53;100.00;99914.53;6237389;28;20045;-68
2021/11/03 13:55:00;;;;;;;4.72;2.50;;;;;;;9.45;100.00;99916.78;6236799;28;20053;-68
2021/11/03 13:58:20;;;;;;;5.45;2.75;;;;;;;9.38;100.00;99913.72;6250048;28;20056;-68
2021/11/03 14:01:23;;;;;;;;;;;;;;;9.27;100.00;99914.38;6250215;28;20056;-68
2021/11/03 14:04:38;;;;;;;5.75;2.47;;;;;;;9.28;100.00;99913.44;6235233;28;19925;-70
2021/11/03 14:07:41;;;;;;;5.93;3.00;;;;;;;9.22;100.00;99910.34;6225444;28;20520;-70
2021/11/03 14:10:43;;;;;;;7.97;3.05;;;;;;;9.12;100.00;99917.91;6224966;28;20050;-70
2021/11/03 14:13:44;;;;;;;5.13;2.97;;;;;;;9.11;100.00;99919.69;6225337;28;20489;-68
2021/11/03 14:16:52;;;;;;;3.65;1.88;;;;;;;9.10;100.00;99923.25;6224143;28;20604;-68
2021/11/03 14:19:57;;;;;;;5.78;3.03;;;;;;;9.05;100.00;99921.88;6224725;28;20042;-69
2021/11/03 14:22:59;;;;;;;9.07;3.13;;;;;;;9.00;100.00;99931.78;6215093;28;20080;-70
2021/11/03 14:26:01;;;;;;;5.55;2.50;;;;;;;8.96;100.00;99923.25;6223110;28;20042;-70